createdAt,value
2018-09-03T00:00:41.816Z,101327.89
2018-09-03T00:03:10.262Z,101323.19
2018-09-03T00:05:38.672Z,101317.60
2018-09-03T00:08:07.086Z,101310.72
2018-09-03T00:10:35.544Z,101310.29
2018-09-03T00:13:04.010Z,101299.60
2018-09-03T00:15:32.492Z,101297.97
2018-09-03T00:18:00.924Z,101292.42
2018-09-03T00:20:29.331Z,101292.89
2018-09-03T00:22:58.048Z,101288.60
2018-09-03T00:25:26.528Z,101285.16
2018-09-03T00:27:54.957Z,101288.20
2018-09-03T00:30:23.411Z,101280.89
2018-09-03T00:32:57.040Z,101280.54
2018-09-03T00:35:30.809Z,101272.41
2018-09-03T00:38:04.587Z,101271.16
2018-09-03T00:40:38.124Z,101273.44
2018-09-03T00:43:11.961Z,101263.65
2018-09-03T00:45:45.723Z,101260.70
2018-09-03T00:48:14.173Z,101259.39
2018-09-03T00:50:43.479Z,101261.53
2018-09-03T00:53:11.909Z,101261.52
2018-09-03T00:55:40.302Z,101255.84
2018-09-03T00:58:08.785Z,101253.68
2018-09-03T01:00:37.203Z,101255.49
2018-09-03T01:03:05.750Z,101251.25
2018-09-03T01:05:34.264Z,101252.62
2018-09-03T01:08:02.704Z,101256.59
2018-09-03T01:10:31.157Z,101250.59
2018-09-03T01:12:59.564Z,101261.80
2018-09-03T01:15:30.100Z,101260.04
2018-09-03T01:18:00.352Z,101261.72
2018-09-03T01:20:28.797Z,101259.06
2018-09-03T01:22:57.263Z,101262.44
2018-09-03T01:25:25.638Z,101261.59
2018-09-03T01:27:54.007Z,101264.69
2018-09-03T01:30:22.400Z,101264.30
2018-09-03T01:32:50.844Z,101259.12
2018-09-03T01:35:19.318Z,101260.46
2018-09-03T01:37:47.732Z,101263.09
2018-09-03T01:40:16.157Z,101261.40
2018-09-03T01:42:44.561Z,101239.90
2018-09-03T01:45:12.966Z,101257.17
2018-09-03T01:47:41.973Z,101252.42
2018-09-03T01:50:10.428Z,101258.86
2018-09-03T01:52:38.917Z,101255.80
2018-09-03T01:55:07.357Z,101249.76
2018-09-03T01:57:35.842Z,101250.17
2018-09-03T02:00:04.560Z,101258.77
2018-09-03T02:02:32.967Z,101261.77
2018-09-03T02:05:01.377Z,101266.93
2018-09-03T02:07:29.832Z,101270.39
2018-09-03T02:09:58.230Z,101277.24
2018-09-03T02:12:26.682Z,101272.48
2018-09-03T02:14:55.069Z,101272.47
2018-09-03T02:17:23.560Z,101276.36
2018-09-03T02:19:52.019Z,101280.22
2018-09-03T02:22:20.573Z,101281.48
2018-09-03T02:24:49.000Z,101289.72
2018-09-03T02:27:17.507Z,101290.63
2018-09-03T02:29:45.916Z,101291.48
2018-09-03T02:32:14.398Z,101300.16
2018-09-03T02:34:42.811Z,101291.09
2018-09-03T02:37:11.552Z,101276.88
2018-09-03T02:39:39.955Z,101270.53
2018-09-03T02:42:08.446Z,101275.73
2018-09-03T02:44:36.862Z,101264.92
2018-09-03T02:47:05.992Z,101260.62
2018-09-03T02:49:34.428Z,101250.27
2018-09-03T02:52:03.299Z,101259.73
2018-09-03T02:54:31.884Z,101264.47
2018-09-03T02:57:00.299Z,101269.16
2018-09-03T02:59:28.756Z,101272.59
2018-09-03T03:01:57.192Z,101266.09
2018-09-03T03:04:25.588Z,101269.07
2018-09-03T03:06:54.040Z,101266.91
2018-09-03T03:09:22.485Z,101265.23
2018-09-03T03:11:50.975Z,101245.86
2018-09-03T03:14:19.410Z,101238.59
2018-09-03T03:16:48.212Z,101235.19
2018-09-03T03:19:16.641Z,101229.96
2018-09-03T03:21:45.048Z,101229.06
2018-09-03T03:24:13.472Z,101230.36
2018-09-03T03:26:41.925Z,101229.48
2018-09-03T03:29:10.536Z,101226.45
2018-09-03T03:31:39.005Z,101222.12
2018-09-03T03:34:07.399Z,101219.99
2018-09-03T03:36:35.849Z,101214.80
2018-09-03T03:39:05.821Z,101208.78
2018-09-03T03:41:34.244Z,101206.66
2018-09-03T03:44:02.712Z,101202.80
2018-09-03T03:46:31.141Z,101204.08
2018-09-03T03:48:59.565Z,101211.83
2018-09-03T03:51:27.978Z,101208.39
2018-09-03T03:53:56.400Z,101211.44
2018-09-03T03:56:25.370Z,101214.03
2018-09-03T03:58:53.773Z,101210.16
2018-09-03T04:01:22.159Z,101207.14
2018-09-03T04:03:50.562Z,101207.12
2018-09-03T04:06:18.969Z,101202.33
2018-09-03T04:08:47.369Z,101203.59
2018-09-03T04:11:15.840Z,101201.88
2018-09-03T04:13:44.254Z,101194.95
2018-09-03T04:16:12.714Z,101199.73
2018-09-03T04:18:41.114Z,101197.15
2018-09-03T04:21:09.562Z,101197.59
2018-09-03T04:23:37.976Z,101197.19
2018-09-03T04:26:07.272Z,101196.78
2018-09-03T04:28:35.797Z,101198.08
2018-09-03T04:31:04.232Z,101198.94
2018-09-03T04:33:32.680Z,101190.31
2018-09-03T04:36:01.862Z,101194.20
2018-09-03T04:38:30.303Z,101199.37
2018-09-03T04:40:58.685Z,101187.73
2018-09-03T04:43:27.084Z,101179.09
2018-09-03T04:45:55.540Z,101183.01
2018-09-03T04:48:23.951Z,101183.48
2018-09-03T04:50:52.338Z,101190.41
2018-09-03T04:53:20.797Z,101188.23
2018-09-03T04:55:49.212Z,101189.05
2018-09-03T04:58:18.235Z,101185.58
2018-09-03T05:00:46.660Z,101185.14
2018-09-03T05:03:15.107Z,101181.23
2018-09-03T05:05:43.557Z,101184.22
2018-09-03T05:08:11.915Z,101188.50
2018-09-03T05:10:40.367Z,101195.39
2018-09-03T05:13:09.831Z,101194.55
2018-09-03T05:15:38.222Z,101198.89
2018-09-03T05:18:06.686Z,101189.87
2018-09-03T05:20:35.185Z,101195.52
2018-09-03T05:23:03.643Z,101196.81
2018-09-03T05:25:32.051Z,101199.82
2018-09-03T05:28:00.480Z,101193.33
2018-09-03T05:30:28.920Z,101185.58
2018-09-03T05:32:57.449Z,101179.09
2018-09-03T05:35:25.894Z,101172.63
2018-09-03T05:37:54.333Z,101171.36
2018-09-03T05:40:22.768Z,101166.59
2018-09-03T05:42:51.235Z,101163.97
2018-09-03T05:45:19.650Z,101166.11
2018-09-03T05:47:48.056Z,101173.85
2018-09-03T05:50:17.143Z,101179.87
2018-09-03T05:52:45.441Z,101185.06
2018-09-03T05:55:13.857Z,101182.89
2018-09-03T05:57:42.261Z,101179.83
2018-09-03T06:00:10.712Z,101180.63
2018-09-03T06:02:39.077Z,101154.42
2018-09-03T06:05:07.553Z,101177.14
2018-09-03T06:07:35.973Z,101170.66
2018-09-03T06:10:04.417Z,101166.32
2018-09-03T06:12:33.048Z,101171.94
2018-09-03T06:15:01.528Z,101163.80
2018-09-03T06:17:30.902Z,101162.52
2018-09-03T06:20:01.171Z,101159.08
2018-09-03T06:22:29.609Z,101154.78
2018-09-03T06:24:57.984Z,101147.02
2018-09-03T06:27:26.406Z,101149.59
2018-09-03T06:29:54.790Z,101152.17
2018-09-03T06:32:23.230Z,101157.33
2018-09-03T06:34:51.604Z,101162.87
2018-09-03T06:37:20.034Z,101158.95
2018-09-03T06:39:48.455Z,101159.78
2018-09-03T06:42:16.860Z,101163.22
2018-09-03T06:44:45.309Z,101165.77
2018-09-03T06:47:13.970Z,101167.48
2018-09-03T06:49:42.430Z,101158.43
2018-09-03T06:52:10.868Z,101170.08
2018-09-03T06:54:39.361Z,101167.06
2018-09-03T06:57:07.779Z,101158.88
2018-09-03T06:59:36.229Z,101157.59
2018-09-03T07:02:04.700Z,101155.00
2018-09-03T07:04:33.297Z,101150.24
2018-09-03T07:07:01.716Z,101147.62
2018-09-03T07:09:30.093Z,101144.99
2018-09-03T07:11:58.505Z,101150.17
2018-09-03T07:14:26.948Z,101149.73
2018-09-03T07:16:55.956Z,101151.84
2018-09-03T07:19:24.358Z,101148.38
2018-09-03T07:21:52.768Z,101154.85
2018-09-03T07:24:21.162Z,101148.38
2018-09-03T07:26:49.643Z,101147.92
2018-09-03T07:29:18.112Z,101151.75
2018-09-03T07:31:46.537Z,101146.11
2018-09-03T07:34:14.931Z,101138.72
2018-09-03T07:36:43.346Z,101138.27
2018-09-03T07:39:11.920Z,101140.86
2018-09-03T07:41:40.450Z,101140.44
2018-09-03T07:44:08.924Z,101143.88
2018-09-03T07:46:37.900Z,101146.07
2018-09-03T07:49:06.371Z,101140.45
2018-09-03T07:51:34.792Z,101140.45
2018-09-03T07:54:03.240Z,101152.11
2018-09-03T07:56:31.676Z,101148.67
2018-09-03T07:59:00.696Z,101147.42
2018-09-03T08:01:29.142Z,101153.48
2018-09-03T08:03:57.642Z,101151.77
2018-09-03T08:06:26.189Z,101152.66
2018-09-03T08:08:55.201Z,101149.23
2018-09-03T08:11:23.618Z,101157.44
2018-09-03T08:13:52.048Z,101159.61
2018-09-03T08:16:20.521Z,101157.48
2018-09-03T08:18:48.949Z,101158.36
2018-09-03T08:21:17.359Z,101160.07
2018-09-03T08:23:45.801Z,101160.48
2018-09-03T08:26:14.193Z,101160.48
2018-09-03T08:28:42.664Z,101154.85
2018-09-03T08:31:11.053Z,101152.27
2018-09-03T08:33:39.478Z,101147.09
2018-09-03T08:36:07.867Z,101147.94
2018-09-03T08:38:36.322Z,101140.69
2018-09-03T08:41:04.789Z,101153.58
2018-09-03T08:43:33.244Z,101151.38
2018-09-03T08:46:02.252Z,101148.36
2018-09-03T08:48:30.629Z,101150.51
2018-09-03T08:50:59.069Z,101149.67
2018-09-03T08:53:28.245Z,101149.72
2018-09-03T08:55:56.682Z,101153.59
2018-09-03T08:58:25.109Z,101154.47
2018-09-03T09:00:53.550Z,101153.62
2018-09-03T09:03:27.166Z,101154.89
2018-09-03T09:05:55.647Z,101146.25
2018-09-03T09:08:24.047Z,101150.53
2018-09-03T09:10:52.482Z,101146.24
2018-09-03T09:13:20.973Z,101150.51
2018-09-03T09:15:49.994Z,101144.45
2018-09-03T09:18:18.478Z,101145.29
2018-09-03T09:20:47.105Z,101143.53
2018-09-03T09:23:15.937Z,101153.44
2018-09-03T09:25:44.360Z,101151.30
2018-09-03T09:28:12.823Z,101152.14
2018-09-03T09:30:41.249Z,101147.34
2018-09-03T09:33:09.969Z,101155.11
2018-09-03T09:35:38.353Z,101152.94
2018-09-03T09:38:07.123Z,101151.18
2018-09-03T09:40:35.531Z,101140.41
2018-09-03T09:43:04.148Z,101146.47
2018-09-03T09:45:32.493Z,101139.59
2018-09-03T09:48:00.990Z,101137.81
2018-09-03T09:50:29.576Z,101133.47
2018-09-03T09:52:57.989Z,101130.80
2018-09-03T09:55:26.472Z,101125.98
2018-09-03T09:57:54.884Z,101119.45
2018-09-03T10:00:28.591Z,101122.79
2018-09-03T10:02:57.122Z,101113.67
2018-09-03T10:05:25.527Z,101109.34
2018-09-03T10:07:53.937Z,101115.34
2018-09-03T10:10:22.372Z,101108.86
2018-09-03T10:12:50.771Z,101108.37
2018-09-03T10:15:19.231Z,101100.88
2018-09-03T10:17:47.664Z,101098.67
2018-09-03T10:20:16.083Z,101102.05
2018-09-03T10:22:44.498Z,101101.56
2018-09-03T10:25:12.948Z,101096.32
2018-09-03T10:27:41.382Z,101093.63
2018-09-03T10:30:09.800Z,101091.00
2018-09-03T10:32:38.285Z,101087.09
2018-09-03T10:35:07.394Z,101080.58
2018-09-03T10:37:35.806Z,101084.06
2018-09-03T10:40:04.447Z,101078.73
2018-09-03T10:42:32.816Z,101068.69
2018-09-03T10:45:01.283Z,101073.82
2018-09-03T10:47:29.695Z,101072.44
2018-09-03T10:49:58.126Z,101064.55
2018-09-03T10:52:26.578Z,101063.57
2018-09-03T10:54:55.006Z,101061.74
2018-09-03T10:57:23.437Z,101072.00
2018-09-03T10:59:51.816Z,101068.05
2018-09-03T11:02:20.312Z,101067.48
2018-09-03T11:04:48.768Z,101057.39
2018-09-03T11:07:17.236Z,101051.24
2018-09-03T11:09:45.651Z,101052.00
2018-09-03T11:12:14.140Z,101055.48
2018-09-03T11:14:42.597Z,101052.89
2018-09-03T11:17:11.097Z,101059.72
2018-09-03T11:19:42.899Z,101057.29
2018-09-03T11:22:11.408Z,101065.08
2018-09-03T11:24:39.859Z,101057.26
2018-09-03T11:27:08.399Z,101055.07
2018-09-03T11:29:36.902Z,101045.44
2018-09-03T11:32:05.782Z,101048.80
2018-09-03T11:34:34.228Z,101050.87
2018-09-03T11:37:02.657Z,101047.97
2018-09-03T11:39:31.134Z,101035.05
2018-09-03T11:41:59.568Z,101038.44
2018-09-03T11:44:28.024Z,101037.04
2018-09-03T11:46:56.452Z,101027.92
2018-09-03T11:49:24.944Z,101024.73
2018-09-03T11:51:53.372Z,101026.64
2018-09-03T11:54:21.825Z,101025.91
2018-09-03T11:56:50.259Z,101022.83
2018-09-03T11:59:18.705Z,101024.13
2018-09-03T12:01:47.101Z,101022.83
2018-09-03T12:04:15.481Z,101018.41
2018-09-03T12:06:43.996Z,101017.44
2018-09-03T12:09:12.437Z,101018.06
2018-09-03T12:11:40.879Z,101020.66
2018-09-03T12:14:16.172Z,101022.33
2018-09-03T12:16:44.673Z,101016.23
2018-09-03T12:19:13.061Z,101017.02
2018-09-03T12:21:41.514Z,101021.44
2018-09-03T12:24:09.921Z,101025.00
2018-09-03T12:26:38.371Z,101015.46
2018-09-03T12:29:06.793Z,101018.47
2018-09-03T12:31:35.322Z,101021.84
2018-09-03T12:34:03.729Z,101013.08
2018-09-03T12:36:32.155Z,101018.12
2018-09-03T12:39:00.649Z,100959.33
2018-09-03T12:41:29.137Z,101011.05
2018-09-03T12:43:57.661Z,101005.03
2018-09-03T12:46:26.568Z,101007.06
2018-09-03T12:48:54.956Z,101003.45
2018-09-03T12:51:23.428Z,101006.73
2018-09-03T12:53:51.813Z,101000.15
2018-09-03T12:56:20.289Z,101001.81
2018-09-03T12:58:48.771Z,100998.77
2018-09-03T13:01:17.171Z,100991.94
2018-09-03T13:03:45.712Z,100999.30
2018-09-03T13:06:14.184Z,100993.73
2018-09-03T13:08:42.640Z,100999.25
2018-09-03T13:11:11.159Z,100995.77
2018-09-03T13:13:39.583Z,101000.20
2018-09-03T13:16:08.036Z,101001.08
2018-09-03T13:18:36.451Z,100995.09
2018-09-03T13:21:05.007Z,100994.64
2018-09-03T13:23:33.414Z,100997.97
2018-09-03T13:26:01.872Z,100992.87
2018-09-03T13:28:30.272Z,100992.52
2018-09-03T13:30:58.697Z,100997.21
2018-09-03T13:33:27.108Z,100989.91
2018-09-03T13:35:55.517Z,100991.30
2018-09-03T13:38:24.001Z,100987.24
2018-09-03T13:40:52.509Z,100978.55
2018-09-03T13:43:21.022Z,100975.09
2018-09-03T13:45:49.447Z,100969.32
2018-09-03T13:48:17.930Z,100967.17
2018-09-03T13:50:46.369Z,100968.87
2018-09-03T13:53:14.851Z,100966.31
2018-09-03T13:55:43.289Z,100970.17
2018-09-03T13:58:11.729Z,100968.13
2018-09-03T14:00:40.224Z,100976.13
2018-09-03T14:03:08.688Z,100973.22
2018-09-03T14:05:37.122Z,100971.02
2018-09-03T14:08:05.604Z,100970.78
2018-09-03T14:10:34.063Z,100968.83
2018-09-03T14:13:02.584Z,100972.38
2018-09-03T14:15:30.987Z,100978.70
2018-09-03T14:17:59.404Z,100976.36
2018-09-03T14:20:27.990Z,100978.41
2018-09-03T14:22:56.495Z,100976.70
2018-09-03T14:25:24.962Z,100967.28
2018-09-03T14:27:53.479Z,100970.89
2018-09-03T14:30:21.900Z,100970.24
2018-09-03T14:32:50.611Z,100969.27
2018-09-03T14:35:21.148Z,100970.27
2018-09-03T14:37:50.549Z,100969.57
2018-09-03T14:40:19.061Z,100951.08
2018-09-03T14:42:47.665Z,100959.55
2018-09-03T14:45:16.205Z,100964.45
2018-09-03T14:47:44.646Z,100963.66
2018-09-03T14:50:14.064Z,100960.09
2018-09-03T14:52:42.535Z,100960.50
2018-09-03T14:55:10.989Z,100965.66
2018-09-03T14:57:39.405Z,100964.41
2018-09-03T15:00:08.278Z,100966.66
2018-09-03T15:02:36.814Z,100962.80
2018-09-03T15:05:05.349Z,100967.64
2018-09-03T15:07:33.749Z,100964.23
2018-09-03T15:10:02.258Z,100969.35
2018-09-03T15:12:30.713Z,100933.02
2018-09-03T15:14:59.265Z,100966.70
2018-09-03T15:17:27.677Z,100968.05
2018-09-03T15:19:56.131Z,100959.30
2018-09-03T15:22:24.550Z,100953.54
2018-09-03T15:24:53.033Z,100955.99
2018-09-03T15:27:21.504Z,100961.86
2018-09-03T15:29:49.931Z,100961.77
2018-09-03T15:32:18.375Z,100958.16
2018-09-03T15:34:46.757Z,100958.50
2018-09-03T15:37:15.189Z,100959.76
2018-09-03T15:39:43.654Z,100962.22
2018-09-03T15:42:12.883Z,100960.41
2018-09-03T15:44:41.332Z,100960.41
2018-09-03T15:47:09.788Z,100954.85
2018-09-03T15:49:38.177Z,100957.55
2018-09-03T15:52:07.586Z,100955.90
2018-09-03T15:54:36.042Z,100953.25
2018-09-03T15:57:05.624Z,100962.42
2018-09-03T15:59:34.797Z,100965.48
2018-09-03T16:02:03.867Z,100961.63
2018-09-03T16:04:32.284Z,100962.63
2018-09-03T16:07:00.710Z,100956.30
2018-09-03T16:09:30.045Z,100955.09
2018-09-03T16:11:58.531Z,100955.65
2018-09-03T16:14:26.960Z,100957.80
2018-09-03T16:16:55.416Z,100959.41
2018-09-03T16:19:23.880Z,100955.80
2018-09-03T16:21:52.340Z,100951.39
2018-09-03T16:24:20.806Z,100954.05
2018-09-03T16:26:49.218Z,100955.35
2018-09-03T16:29:17.619Z,100948.89
2018-09-03T16:31:46.192Z,100955.89
2018-09-03T16:34:14.845Z,100949.48
2018-09-03T16:36:43.304Z,100949.59
2018-09-03T16:39:11.796Z,100946.13
2018-09-03T16:41:40.388Z,100944.47
2018-09-03T16:44:08.798Z,100943.86
2018-09-03T16:46:37.303Z,100952.88
2018-09-03T16:49:05.817Z,100951.63
2018-09-03T16:51:36.882Z,100958.19
2018-09-03T16:54:06.248Z,100953.17
2018-09-03T16:56:34.679Z,100955.77
2018-09-03T16:59:03.117Z,100951.47
2018-09-03T17:01:31.668Z,100956.22
2018-09-03T17:04:00.006Z,100954.56
2018-09-03T17:06:28.476Z,100957.26
2018-09-03T17:08:56.952Z,100958.55
2018-09-03T17:11:27.543Z,100955.55
2018-09-03T17:13:56.012Z,100954.25
2018-09-03T17:16:25.407Z,100950.45
2018-09-03T17:18:54.719Z,100949.64
2018-09-03T17:21:23.204Z,100950.98
2018-09-03T17:23:51.581Z,100952.69
2018-09-03T17:26:20.025Z,100959.20
2018-09-03T17:28:48.547Z,100956.28
2018-09-03T17:31:17.023Z,100951.94
2018-09-03T17:33:45.724Z,100956.34
2018-09-03T17:36:14.175Z,100960.73
2018-09-03T17:38:42.617Z,100961.27
2018-09-03T17:41:11.055Z,100961.28
2018-09-03T17:43:39.510Z,100965.23
2018-09-03T17:46:07.953Z,100959.98
2018-09-03T17:48:36.535Z,100961.78
2018-09-03T17:51:05.641Z,100957.88
2018-09-03T17:53:34.146Z,100961.86
2018-09-03T17:56:02.557Z,100968.86
2018-09-03T17:58:31.045Z,100966.70
2018-09-03T18:01:00.023Z,100960.73
2018-09-03T18:03:28.504Z,100960.38
2018-09-03T18:05:56.991Z,100960.42
2018-09-03T18:08:26.255Z,100950.55
2018-09-03T18:10:54.809Z,100954.50
2018-09-03T18:13:23.317Z,100952.79
2018-09-03T18:15:51.762Z,100949.34
2018-09-03T18:18:21.090Z,100954.14
2018-09-03T18:20:49.553Z,100952.84
2018-09-03T18:23:18.164Z,100958.08
2018-09-03T18:25:46.789Z,100954.67
2018-09-03T18:28:16.241Z,100960.77
2018-09-03T18:30:44.824Z,100953.90
2018-09-03T18:33:13.373Z,100958.26
2018-09-03T18:35:42.457Z,100953.55
2018-09-03T18:38:11.055Z,100951.92
2018-09-03T18:40:39.665Z,100955.50
2018-09-03T18:43:08.432Z,100958.18
2018-09-03T18:45:37.028Z,100960.42
2018-09-03T18:48:05.695Z,100957.95
2018-09-03T18:50:34.242Z,100953.31
2018-09-03T18:53:02.859Z,100953.89
2018-09-03T18:55:31.644Z,100961.92
2018-09-03T18:58:00.301Z,100962.45
2018-09-03T19:00:29.122Z,100968.09
2018-09-03T19:02:57.815Z,100967.98
2018-09-03T19:05:26.425Z,100969.72
2018-09-03T19:07:55.332Z,100971.02
2018-09-03T19:10:24.267Z,100977.56
2018-09-03T19:12:52.788Z,100980.56
2018-09-03T19:15:21.445Z,100981.42
2018-09-03T19:17:50.264Z,100980.13
2018-09-03T19:20:18.997Z,100986.66
2018-09-03T19:22:47.577Z,100978.05
2018-09-03T19:25:16.354Z,100974.60
2018-09-03T19:27:44.852Z,100957.12
2018-09-03T19:30:13.621Z,100970.67
2018-09-03T19:32:42.160Z,100971.64
2018-09-03T19:35:10.705Z,100970.38
2018-09-03T19:37:39.244Z,100971.60
2018-09-03T19:40:07.872Z,100971.09
2018-09-03T19:42:36.325Z,100963.28
2018-09-03T19:45:04.866Z,100963.73
2018-09-03T19:47:33.285Z,100958.94
2018-09-03T19:50:01.738Z,100951.59
2018-09-03T19:52:30.834Z,100949.93
2018-09-03T19:54:59.460Z,100949.19
2018-09-03T19:57:27.984Z,100940.98
2018-09-03T19:59:56.613Z,100947.52
2018-09-03T20:02:25.248Z,100954.94
2018-09-03T20:04:53.798Z,100949.67
2018-09-03T20:07:22.386Z,100950.48
2018-09-03T20:09:50.950Z,100948.30
2018-09-03T20:12:19.669Z,100953.01
2018-09-03T20:14:48.252Z,100957.35
2018-09-03T20:17:16.696Z,100958.20
2018-09-03T20:19:45.380Z,100957.31
2018-09-03T20:22:16.517Z,100953.41
2018-09-03T20:24:45.174Z,100954.34
2018-09-03T20:27:13.988Z,100960.88
2018-09-03T20:29:43.774Z,100949.74
2018-09-03T20:32:12.519Z,100949.86
2018-09-03T20:34:41.485Z,100952.94
2018-09-03T20:37:10.438Z,100956.91
2018-09-03T20:39:39.077Z,100955.23
2018-09-03T20:42:07.880Z,100949.30
2018-09-03T20:44:36.597Z,100949.37
2018-09-03T20:47:05.199Z,100955.89
2018-09-03T20:49:33.618Z,100956.75
2018-09-03T20:52:02.031Z,100954.59
2018-09-03T20:54:35.335Z,100943.77
2018-09-03T20:57:03.776Z,100953.67
2018-09-03T20:59:32.433Z,100955.52
2018-09-03T21:02:01.010Z,100947.05
2018-09-03T21:04:29.544Z,100949.79
2018-09-03T21:06:58.262Z,100945.45
2018-09-03T21:09:26.786Z,100943.23
2018-09-03T21:11:55.265Z,100947.05
2018-09-03T21:14:23.709Z,100944.39
2018-09-03T21:16:52.104Z,100944.72
2018-09-03T21:19:20.669Z,100942.88
2018-09-03T21:21:49.199Z,100944.99
2018-09-03T21:24:17.789Z,100944.98
2018-09-03T21:26:46.393Z,100949.73
2018-09-03T21:29:14.912Z,100948.45
2018-09-03T21:31:43.437Z,100952.74
2018-09-03T21:34:11.946Z,100957.94
2018-09-03T21:36:41.024Z,100951.48
2018-09-03T21:39:09.574Z,100954.93
2018-09-03T21:41:38.151Z,100949.30
2018-09-03T21:44:06.860Z,100948.48
2018-09-03T21:46:35.370Z,100954.56
2018-09-03T21:49:03.956Z,100952.45
2018-09-03T21:51:32.622Z,100949.51
2018-09-03T21:54:01.103Z,100953.91
2018-09-03T21:56:29.609Z,100954.84
2018-09-03T21:58:58.065Z,100955.28
2018-09-03T22:01:26.484Z,100957.03
2018-09-03T22:03:54.929Z,100957.13
2018-09-03T22:06:23.426Z,100961.16
2018-09-03T22:08:51.860Z,100962.52
2018-09-03T22:11:22.269Z,100959.89
2018-09-03T22:13:50.824Z,100960.75
2018-09-03T22:16:19.836Z,100958.50
2018-09-03T22:18:48.264Z,100955.84
2018-09-03T22:21:16.702Z,100954.53
2018-09-03T22:23:45.133Z,100957.16
2018-09-03T22:26:13.568Z,100963.69
2018-09-03T22:28:41.987Z,100964.51
2018-09-03T22:31:10.379Z,100959.80
2018-09-03T22:33:39.285Z,100947.40
2018-09-03T22:36:07.860Z,100953.44
2018-09-03T22:38:36.311Z,100953.88
2018-09-03T22:41:05.221Z,100952.63
2018-09-03T22:43:33.691Z,100951.73
2018-09-03T22:46:02.273Z,100952.18
2018-09-03T22:48:30.745Z,100952.21
2018-09-03T22:50:59.288Z,100952.75
2018-09-03T22:53:27.738Z,100951.59
2018-09-03T22:55:56.109Z,100944.78
2018-09-03T22:58:24.522Z,100958.17
2018-09-03T23:00:53.257Z,100945.20
2018-09-03T23:03:21.743Z,100947.45
2018-09-03T23:05:50.117Z,100946.63
2018-09-03T23:08:18.529Z,100945.36
2018-09-03T23:10:46.909Z,100946.24
2018-09-03T23:13:15.342Z,100945.83
2018-09-03T23:15:49.181Z,100945.42
2018-09-03T23:18:17.593Z,100948.89
2018-09-03T23:20:46.068Z,100948.93
2018-09-03T23:23:14.563Z,100943.77
2018-09-03T23:25:43.042Z,100942.06
2018-09-03T23:28:11.473Z,100940.55
2018-09-03T23:30:39.914Z,100939.87
2018-09-03T23:33:08.360Z,100936.45
2018-09-03T23:35:36.760Z,100936.53
2018-09-03T23:38:05.276Z,100935.77
2018-09-03T23:40:33.887Z,100931.64
2018-09-03T23:43:03.553Z,100936.38
2018-09-03T23:45:32.034Z,100933.81
2018-09-03T23:48:00.845Z,100941.20
2018-09-03T23:50:29.296Z,100936.13
2018-09-03T23:52:57.984Z,100937.04
2018-09-03T23:55:26.418Z,100939.63
2018-09-03T23:57:54.861Z,100939.22
